Time;durP1;ratioP1;P1;durP2;ratioP2;P2;SDS_P1;SDS_P2;PMS_P1;PMS_P2;Temp;Humidity;BMP_temperature;BMP_pressure;BME280_temperature;BME280_humidity;BME280_pressure;Samples;Min_cycle;Max_cycle;Signal;HPM_P1;HPM_P2
2021/12/13 00:01:52;;;;;;;65.63;5.80;;;;;;;;;;5072270;28;20205;-65
2021/12/13 00:04:21;;;;;;;62.22;5.43;;;;;;;;;;5070290;28;20463;-65
2021/12/13 00:06:50;;;;;;;73.53;6.03;;;;;;;;;;5072313;28;20559;-65
2021/12/13 00:09:20;;;;;;;61.50;5.13;;;;;;;;;;5071880;28;20815;-65
2021/12/13 00:11:48;;;;;;;68.10;5.60;;;;;;;;;;5072082;28;20452;-65
2021/12/13 00:14:17;;;;;;;61.53;6.03;;;;;;;;;;5071959;28;20453;-64
2021/12/13 00:16:45;;;;;;;61.97;5.82;;;;;;;;;;5071977;28;20227;-66
2021/12/13 00:19:14;;;;;;;62.67;5.63;;;;;;;;;;5071512;28;20234;-65
2021/12/13 00:21:43;;;;;;;65.80;5.73;;;;;;;;;;5071747;28;20228;-65
2021/12/13 00:24:12;;;;;;;63.70;6.20;;;;;;;;;;5071377;28;21018;-65
2021/12/13 00:26:42;;;;;;;63.28;5.57;;;;;;;;;;5071861;28;20211;-65
2021/12/13 00:29:10;;;;;;;62.20;5.40;;;;;;;;;;5071739;28;20244;-65
2021/12/13 00:31:45;;;;;;;67.43;5.70;;;;;;;;;;5071633;28;20296;-65
2021/12/13 00:34:31;;;;;;;63.00;5.20;;;;;;;;;;5071558;28;20204;-64
2021/12/13 00:37:03;;;;;;;65.30;5.67;;;;;;;;;;5051710;28;20301;-65
2021/12/13 00:39:31;;;;;;;62.22;6.13;;;;;;;;;;5051214;28;20870;-64
2021/12/13 00:42:02;;;;;;;62.00;5.95;;;;;;;;;;5051632;28;20215;-66
2021/12/13 00:44:31;;;;;;;62.10;5.90;;;;;;;;;;5051306;28;20232;-66
2021/12/13 00:47:01;;;;;;;63.58;6.47;;;;;;;;;;5051327;28;20214;-65
2021/12/13 00:49:29;;;;;;;64.85;6.32;;;;;;;;;;5050885;28;20222;-65
2021/12/13 00:51:59;;;;;;;67.20;7.10;;;;;;;;;;5051803;28;20214;-65
2021/12/13 00:54:27;;;;;;;63.92;6.45;;;;;;;;;;5051523;28;20301;-66
2021/12/13 00:57:25;;;;;;;62.13;6.28;;;;;;;;;;5051556;28;20237;-65
2021/12/13 00:59:58;;;;;;;62.33;6.35;;;;;;;;;;5009320;28;20320;-65
2021/12/13 01:02:27;;;;;;;67.88;6.72;;;;;;;;;;5043050;28;20245;-65
2021/12/13 01:05:00;;;;;;;64.00;7.03;;;;;;;;;;5051026;28;20213;-65
2021/12/13 01:07:44;;;;;;;62.65;6.25;;;;;;;;;;5049861;28;20289;-65
2021/12/13 01:10:45;;;;;;;62.90;7.50;;;;;;;;;;5051778;28;20314;-65
2021/12/13 01:13:14;;;;;;;65.80;6.70;;;;;;;;;;5051231;28;20244;-66
2021/12/13 01:15:48;;;;;;;61.85;6.30;;;;;;;;;;5051099;28;20213;-65
2021/12/13 01:18:23;;;;;;;64.00;7.07;;;;;;;;;;5050785;28;20218;-65
2021/12/13 01:21:02;;;;;;;66.75;8.63;;;;;;;;;;5051486;28;20255;-65
2021/12/13 01:23:41;;;;;;;64.22;8.30;;;;;;;;;;5050956;28;20259;-66
2021/12/13 01:26:29;;;;;;;63.60;7.35;;;;;;;;;;5050805;28;20293;-65
2021/12/13 01:28:58;;;;;;;73.82;9.23;;;;;;;;;;5051123;28;20203;-65
2021/12/13 01:31:29;;;;;;;66.00;8.45;;;;;;;;;;5051382;28;20212;-65
2021/12/13 01:33:57;;;;;;;64.78;7.90;;;;;;;;;;5051400;28;20212;-65
2021/12/13 01:36:27;;;;;;;66.15;8.60;;;;;;;;;;5050939;28;20237;-65
2021/12/13 01:38:55;;;;;;;68.75;10.35;;;;;;;;;;5049307;28;20696;-65
2021/12/13 01:41:24;;;;;;;65.13;8.70;;;;;;;;;;5051353;28;20596;-65
2021/12/13 01:43:53;;;;;;;67.20;8.45;;;;;;;;;;5050763;28;20305;-65
2021/12/13 01:46:21;;;;;;;62.78;7.50;;;;;;;;;;5050529;28;20296;-65
2021/12/13 01:48:50;;;;;;;65.18;8.23;;;;;;;;;;5050504;28;20296;-65
2021/12/13 01:51:20;;;;;;;70.03;8.65;;;;;;;;;;5051426;28;20216;-65
2021/12/13 01:53:49;;;;;;;65.40;8.57;;;;;;;;;;5050991;28;20317;-65
2021/12/13 01:56:37;;;;;;;73.25;9.10;;;;;;;;;;5050863;28;20293;-65
2021/12/13 01:59:16;;;;;;;68.10;9.07;;;;;;;;;;5050438;28;20231;-64
2021/12/13 02:01:43;;;;;;;68.07;8.30;;;;;;;;;;5054557;28;20205;-65
2021/12/13 02:04:14;;;;;;;66.72;8.82;;;;;;;;;;5054473;28;20211;-64
2021/12/13 02:06:43;;;;;;;71.85;8.95;;;;;;;;;;5054228;28;20217;-65
2021/12/13 02:09:14;;;;;;;70.57;9.23;;;;;;;;;;5054159;28;20221;-65
2021/12/13 02:11:42;;;;;;;66.40;9.18;;;;;;;;;;5053257;28;20202;-64
2021/12/13 02:14:15;;;;;;;70.68;9.57;;;;;;;;;;5054241;28;20212;-65
2021/12/13 02:16:57;;;;;;;69.95;9.30;;;;;;;;;;5054237;28;20301;-65
2021/12/13 02:19:28;;;;;;;66.80;9.90;;;;;;;;;;5053752;28;20234;-65
2021/12/13 02:22:04;;;;;;;71.65;10.02;;;;;;;;;;5054497;28;20267;-65
2021/12/13 02:24:33;;;;;;;66.65;9.73;;;;;;;;;;5054045;28;20297;-65
2021/12/13 02:27:00;;;;;;;71.50;9.77;;;;;;;;;;5053645;28;20292;-65
2021/12/13 02:29:35;;;;;;;70.28;11.52;;;;;;;;;;5054063;28;20222;-65
2021/12/13 02:32:03;;;;;;;67.25;9.77;;;;;;;;;;5054539;28;20224;-65
2021/12/13 02:34:33;;;;;;;71.13;10.80;;;;;;;;;;5053907;28;20216;-65
2021/12/13 02:37:00;;;;;;;70.00;10.73;;;;;;;;;;5053627;28;20233;-65
2021/12/13 02:39:29;;;;;;;69.78;11.50;;;;;;;;;;5053204;28;20229;-64
2021/12/13 02:42:00;;;;;;;70.05;11.18;;;;;;;;;;5054085;28;20211;-65
2021/12/13 02:44:30;;;;;;;69.38;11.25;;;;;;;;;;5071643;28;20208;-65
2021/12/13 02:46:58;;;;;;;69.45;9.63;;;;;;;;;;5071989;28;20443;-65
2021/12/13 02:49:26;;;;;;;67.95;9.55;;;;;;;;;;5072856;28;20217;-65
2021/12/13 02:51:55;;;;;;;64.15;8.23;;;;;;;;;;5073713;28;20674;-65
2021/12/13 02:54:24;;;;;;;68.50;9.10;;;;;;;;;;5073501;28;20202;-64
2021/12/13 02:56:53;;;;;;;66.25;9.65;;;;;;;;;;5073458;28;20216;-65
2021/12/13 02:59:22;;;;;;;67.03;9.82;;;;;;;;;;5073274;28;20320;-64
2021/12/13 03:01:51;;;;;;;69.00;10.20;;;;;;;;;;5073522;28;20221;-64
2021/12/13 03:04:20;;;;;;;68.93;9.70;;;;;;;;;;5073268;28;20216;-65
2021/12/13 03:06:50;;;;;;;70.47;8.80;;;;;;;;;;5073302;28;20773;-65
2021/12/13 03:09:18;;;;;;;68.25;9.55;;;;;;;;;;5072820;28;20235;-65
2021/12/13 03:11:46;;;;;;;68.00;8.70;;;;;;;;;;5072763;28;20205;-64
2021/12/13 03:14:15;;;;;;;67.90;10.15;;;;;;;;;;5071344;28;20704;-65
2021/12/13 03:16:48;;;;;;;67.82;9.57;;;;;;;;;;5073421;28;20209;-64
2021/12/13 03:19:23;;;;;;;67.90;9.75;;;;;;;;;;5073176;28;20229;-65
2021/12/13 03:22:05;;;;;;;69.47;10.27;;;;;;;;;;5073029;28;20205;-65
2021/12/13 03:24:40;;;;;;;67.88;9.55;;;;;;;;;;5039598;28;20208;-66
2021/12/13 03:27:15;;;;;;;67.38;9.70;;;;;;;;;;5072807;28;20209;-64
2021/12/13 03:29:48;;;;;;;72.75;10.85;;;;;;;;;;5072788;28;20222;-65
2021/12/13 03:32:18;;;;;;;69.75;10.35;;;;;;;;;;5073267;28;20655;-64
2021/12/13 03:34:52;;;;;;;68.07;9.70;;;;;;;;;;5072838;28;20287;-64
2021/12/13 03:37:21;;;;;;;67.72;9.85;;;;;;;;;;5072324;28;20266;-65
2021/12/13 03:39:50;;;;;;;73.93;11.45;;;;;;;;;;5072860;28;20600;-65
2021/12/13 03:42:20;;;;;;;68.47;10.57;;;;;;;;;;5072751;28;20676;-64
2021/12/13 03:44:48;;;;;;;69.07;9.98;;;;;;;;;;5072416;28;20220;-65
2021/12/13 03:47:20;;;;;;;68.10;9.40;;;;;;;;;;5063020;28;20257;-65
2021/12/13 03:49:49;;;;;;;65.75;10.35;;;;;;;;;;5052047;28;20314;-64
2021/12/13 03:52:17;;;;;;;71.60;10.73;;;;;;;;;;5052981;28;20296;-65
2021/12/13 03:54:45;;;;;;;67.53;11.00;;;;;;;;;;5052276;28;20302;-65
2021/12/13 03:57:13;;;;;;;70.80;11.02;;;;;;;;;;5051975;28;20702;-65
2021/12/13 03:59:41;;;;;;;68.85;10.48;;;;;;;;;;5052484;28;20236;-65
2021/12/13 04:02:10;;;;;;;71.55;11.52;;;;;;;;;;5052123;28;20215;-65
2021/12/13 04:04:41;;;;;;;68.70;10.32;;;;;;;;;;5052224;28;20275;-65
2021/12/13 04:07:09;;;;;;;67.00;10.15;;;;;;;;;;5052276;28;20290;-65
2021/12/13 04:09:37;;;;;;;69.00;12.07;;;;;;;;;;5051847;28;20219;-65
2021/12/13 04:12:06;;;;;;;69.75;10.57;;;;;;;;;;5052490;28;20447;-65
2021/12/13 04:14:37;;;;;;;73.63;11.75;;;;;;;;;;5052115;28;20209;-65
2021/12/13 04:17:19;;;;;;;67.03;9.10;;;;;;;;;;5052205;28;20234;-65
2021/12/13 04:19:49;;;;;;;68.33;10.20;;;;;;;;;;5064528;28;20286;-65
2021/12/13 04:22:18;;;;;;;70.70;10.63;;;;;;;;;;5071783;28;20510;-65
2021/12/13 04:24:49;;;;;;;74.80;12.38;;;;;;;;;;5071849;28;20292;-65
2021/12/13 04:27:18;;;;;;;71.03;11.30;;;;;;;;;;5071783;28;20203;-64
2021/12/13 04:29:48;;;;;;;67.47;9.77;;;;;;;;;;5071280;28;20709;-65
2021/12/13 04:32:17;;;;;;;74.75;9.70;;;;;;;;;;5072017;28;20445;-65
2021/12/13 04:34:45;;;;;;;68.78;10.77;;;;;;;;;;5071678;28;20208;-65
2021/12/13 04:37:15;;;;;;;73.20;10.13;;;;;;;;;;5071367;28;20474;-65
2021/12/13 04:39:43;;;;;;;69.97;10.65;;;;;;;;;;5071355;28;20575;-65
2021/12/13 04:42:11;;;;;;;68.93;11.43;;;;;;;;;;5071827;28;20205;-65
2021/12/13 04:44:43;;;;;;;72.97;10.80;;;;;;;;;;5071518;28;20678;-64
2021/12/13 04:47:12;;;;;;;75.38;10.98;;;;;;;;;;5071624;28;20580;-65
2021/12/13 04:49:40;;;;;;;69.50;11.15;;;;;;;;;;5069075;28;20224;-65
2021/12/13 04:52:09;;;;;;;69.68;11.55;;;;;;;;;;5071382;28;20211;-64
2021/12/13 04:54:40;;;;;;;71.55;11.40;;;;;;;;;;5071880;28;20593;-64
2021/12/13 04:57:07;;;;;;;73.25;10.55;;;;;;;;;;5071495;28;20215;-64
2021/12/13 04:59:35;;;;;;;74.70;10.50;;;;;;;;;;5071283;28;20317;-64
2021/12/13 05:02:04;;;;;;;71.00;10.60;;;;;;;;;;5071266;28;20671;-66
2021/12/13 05:04:32;;;;;;;68.65;10.80;;;;;;;;;;5071953;28;20301;-63
2021/12/13 05:07:00;;;;;;;74.10;10.10;;;;;;;;;;5071094;28;20213;-63
2021/12/13 05:09:28;;;;;;;71.18;10.73;;;;;;;;;;5071174;28;20235;-63
2021/12/13 05:12:04;;;;;;;69.47;9.73;;;;;;;;;;5071093;28;20296;-64
2021/12/13 05:14:34;;;;;;;68.35;9.40;;;;;;;;;;5071541;28;20200;-63
2021/12/13 05:17:07;;;;;;;69.20;9.68;;;;;;;;;;5071048;28;20730;-64
2021/12/13 05:19:36;;;;;;;73.35;11.30;;;;;;;;;;5071231;28;20225;-63
2021/12/13 05:22:04;;;;;;;74.93;10.65;;;;;;;;;;5059497;28;20210;-63
2021/12/13 05:24:33;;;;;;;68.60;10.57;;;;;;;;;;5051462;28;20548;-63
2021/12/13 05:27:05;;;;;;;71.80;10.73;;;;;;;;;;5050866;28;20206;-63
2021/12/13 05:29:34;;;;;;;72.63;11.07;;;;;;;;;;5050903;28;20260;-63
2021/12/13 05:32:02;;;;;;;70.35;10.63;;;;;;;;;;5050854;28;20202;-63
2021/12/13 05:34:35;;;;;;;69.80;10.95;;;;;;;;;;5051377;28;20202;-63
2021/12/13 05:37:03;;;;;;;75.28;11.07;;;;;;;;;;5055065;28;20213;-62
2021/12/13 05:39:30;;;;;;;70.15;10.20;;;;;;;;;;5054468;28;20222;-63
2021/12/13 05:41:58;;;;;;;69.50;11.45;;;;;;;;;;5054686;28;20220;-63
2021/12/13 05:44:29;;;;;;;76.80;11.63;;;;;;;;;;5054745;28;20212;-63
2021/12/13 05:46:57;;;;;;;70.45;10.95;;;;;;;;;;5054911;28;20599;-63
2021/12/13 05:49:26;;;;;;;75.60;12.00;;;;;;;;;;5054881;28;20260;-63
2021/12/13 05:51:55;;;;;;;71.53;10.70;;;;;;;;;;5054574;28;20223;-64
2021/12/13 05:54:25;;;;;;;69.47;10.15;;;;;;;;;;5053671;28;20302;-63
2021/12/13 05:56:54;;;;;;;83.07;11.80;;;;;;;;;;5054707;28;20299;-62
2021/12/13 05:59:22;;;;;;;80.22;12.77;;;;;;;;;;5054404;28;20226;-63
2021/12/13 06:02:01;;;;;;;72.43;10.65;;;;;;;;;;5054556;28;20320;-63
2021/12/13 06:04:33;;;;;;;75.35;11.85;;;;;;;;;;5054332;28;20217;-63
2021/12/13 06:07:01;;;;;;;75.80;13.00;;;;;;;;;;5054174;28;20295;-63
2021/12/13 06:09:42;;;;;;;72.97;12.15;;;;;;;;;;5054613;28;20596;-63
2021/12/13 06:12:11;;;;;;;70.30;10.35;;;;;;;;;;5054111;28;20216;-63
2021/12/13 06:14:39;;;;;;;68.72;9.70;;;;;;;;;;5054649;28;20206;-63
2021/12/13 06:17:09;;;;;;;66.93;9.60;;;;;;;;;;5054256;28;20209;-63
2021/12/13 06:19:40;;;;;;;76.35;11.02;;;;;;;;;;5054148;28;20237;-64
2021/12/13 06:22:10;;;;;;;69.93;10.93;;;;;;;;;;5054192;28;20231;-63
2021/12/13 06:24:40;;;;;;;68.75;10.48;;;;;;;;;;5053439;28;20475;-64
2021/12/13 06:27:10;;;;;;;73.05;13.20;;;;;;;;;;5054016;28;20323;-63
2021/12/13 06:29:51;;;;;;;71.38;10.73;;;;;;;;;;5054230;28;20316;-64
2021/12/13 06:32:24;;;;;;;68.90;10.60;;;;;;;;;;5053659;28;20208;-64
2021/12/13 06:34:51;;;;;;;73.97;11.82;;;;;;;;;;5054130;28;20213;-64
2021/12/13 06:37:24;;;;;;;70.82;10.70;;;;;;;;;;5053508;28;20222;-64
2021/12/13 06:39:51;;;;;;;70.70;10.32;;;;;;;;;;5053809;28;20222;-64
2021/12/13 06:42:18;;;;;;;69.05;9.75;;;;;;;;;;5053616;28;20214;-64
2021/12/13 06:44:47;;;;;;;70.82;10.02;;;;;;;;;;5053640;28;20581;-64
2021/12/13 06:47:16;;;;;;;71.10;11.55;;;;;;;;;;5052495;28;20619;-64
2021/12/13 06:49:46;;;;;;;74.88;11.43;;;;;;;;;;5054340;28;20318;-64
2021/12/13 06:52:21;;;;;;;72.18;10.45;;;;;;;;;;5053697;28;20207;-64
2021/12/13 06:54:49;;;;;;;68.85;10.32;;;;;;;;;;5052877;28;20603;-64
2021/12/13 06:57:18;;;;;;;69.78;10.60;;;;;;;;;;5053643;28;20209;-64
2021/12/13 06:59:50;;;;;;;76.10;13.18;;;;;;;;;;5053501;28;20230;-64
2021/12/13 07:02:19;;;;;;;71.63;10.85;;;;;;;;;;5053367;28;20230;-64
2021/12/13 07:05:03;;;;;;;77.23;10.77;;;;;;;;;;5053156;28;20692;-64
2021/12/13 07:07:34;;;;;;;72.78;10.88;;;;;;;;;;5052958;28;20530;-64
2021/12/13 07:10:02;;;;;;;72.20;11.10;;;;;;;;;;5053665;28;20234;-64
2021/12/13 07:12:31;;;;;;;69.05;10.48;;;;;;;;;;5052950;28;20210;-64
2021/12/13 07:14:59;;;;;;;74.25;10.50;;;;;;;;;;5053576;28;20594;-65
2021/12/13 07:17:29;;;;;;;70.30;10.93;;;;;;;;;;5053131;28;20208;-64
2021/12/13 07:19:57;;;;;;;71.30;11.20;;;;;;;;;;5052893;28;20234;-63
2021/12/13 07:22:25;;;;;;;71.38;11.57;;;;;;;;;;5053094;28;20233;-64
2021/12/13 07:24:55;;;;;;;70.57;11.80;;;;;;;;;;5052902;28;20296;-64
2021/12/13 07:27:23;;;;;;;71.27;11.67;;;;;;;;;;5057557;28;20202;-64
2021/12/13 07:29:51;;;;;;;71.50;12.30;;;;;;;;;;5072985;28;20478;-64
2021/12/13 07:32:20;;;;;;;72.95;11.38;;;;;;;;;;5072486;28;20287;-64
2021/12/13 07:34:54;;;;;;;74.82;11.10;;;;;;;;;;5072789;28;20301;-64
2021/12/13 07:37:35;;;;;;;74.03;11.85;;;;;;;;;;5072563;28;20238;-65
2021/12/13 07:40:16;;;;;;;70.30;11.32;;;;;;;;;;5072988;28;20727;-64
2021/12/13 07:42:50;;;;;;;71.43;10.73;;;;;;;;;;5072602;28;20202;-64
2021/12/13 07:45:23;;;;;;;71.20;10.95;;;;;;;;;;5072867;28;20638;-64
2021/12/13 07:47:52;;;;;;;70.83;11.63;;;;;;;;;;5072504;28;20785;-64
2021/12/13 07:50:20;;;;;;;69.43;10.57;;;;;;;;;;5072719;28;20832;-64
2021/12/13 07:52:53;;;;;;;70.43;10.55;;;;;;;;;;5072265;28;20588;-64
2021/12/13 07:55:25;;;;;;;71.60;11.45;;;;;;;;;;5072475;28;20631;-64
2021/12/13 07:57:54;;;;;;;71.40;11.30;;;;;;;;;;5072007;28;20204;-64
2021/12/13 08:00:23;;;;;;;70.82;11.10;;;;;;;;;;5070214;28;20571;-65
2021/12/13 08:02:54;;;;;;;72.47;10.98;;;;;;;;;;5072281;28;20214;-64
2021/12/13 08:05:24;;;;;;;71.03;10.95;;;;;;;;;;5072174;28;20217;-64
2021/12/13 08:07:54;;;;;;;72.97;12.30;;;;;;;;;;5072218;28;20209;-65
2021/12/13 08:10:25;;;;;;;71.03;10.40;;;;;;;;;;5072396;28;20249;-64
2021/12/13 08:12:54;;;;;;;71.13;11.83;;;;;;;;;;5071980;28;20297;-63
2021/12/13 08:15:22;;;;;;;76.30;12.45;;;;;;;;;;5072208;28;20447;-64
2021/12/13 08:17:51;;;;;;;76.78;11.48;;;;;;;;;;5072349;28;20201;-65
2021/12/13 08:20:21;;;;;;;78.60;12.57;;;;;;;;;;5071684;28;20234;-65
2021/12/13 08:22:50;;;;;;;75.28;13.07;;;;;;;;;;5071914;28;20206;-65
2021/12/13 08:25:19;;;;;;;72.38;11.88;;;;;;;;;;5072029;28;20231;-64
2021/12/13 08:27:52;;;;;;;75.25;12.52;;;;;;;;;;5071943;28;20588;-64
2021/12/13 08:30:21;;;;;;;69.55;10.60;;;;;;;;;;5070082;28;20435;-64
2021/12/13 08:32:56;;;;;;;73.95;12.60;;;;;;;;;;5071276;28;20201;-64
2021/12/13 08:35:23;;;;;;;79.57;12.67;;;;;;;;;;5071939;28;20205;-64
2021/12/13 08:37:55;;;;;;;71.70;11.00;;;;;;;;;;5071530;28;20467;-65
2021/12/13 08:40:23;;;;;;;72.10;10.45;;;;;;;;;;5071715;28;20479;-64
2021/12/13 08:42:53;;;;;;;76.68;11.45;;;;;;;;;;5071639;28;20233;-64
2021/12/13 08:45:26;;;;;;;75.40;10.93;;;;;;;;;;5071488;28;20209;-64
2021/12/13 08:47:55;;;;;;;75.03;11.57;;;;;;;;;;5071674;28;20932;-64
2021/12/13 08:50:24;;;;;;;73.30;11.25;;;;;;;;;;5071424;28;20804;-65
2021/12/13 08:52:55;;;;;;;75.43;10.23;;;;;;;;;;5071156;28;20700;-64
2021/12/13 08:55:26;;;;;;;67.87;9.10;;;;;;;;;;5071599;28;20930;-65
2021/12/13 08:57:57;;;;;;;79.43;11.70;;;;;;;;;;5071258;28;20957;-65
2021/12/13 09:00:30;;;;;;;67.00;9.43;;;;;;;;;;5071560;28;20468;-65
2021/12/13 09:02:58;;;;;;;74.30;11.43;;;;;;;;;;5069651;28;20498;-64
2021/12/13 09:05:28;;;;;;;70.85;11.20;;;;;;;;;;5071340;28;20448;-64
2021/12/13 09:07:56;;;;;;;70.75;9.95;;;;;;;;;;5071188;28;20211;-65
2021/12/13 09:10:35;;;;;;;69.30;10.80;;;;;;;;;;5070353;28;20237;-64
2021/12/13 09:13:04;;;;;;;70.70;11.17;;;;;;;;;;5071066;28;20557;-64
2021/12/13 09:15:34;;;;;;;76.88;11.65;;;;;;;;;;5071453;28;20460;-65
2021/12/13 09:18:01;;;;;;;71.88;10.57;;;;;;;;;;5071022;28;20713;-64
2021/12/13 09:20:31;;;;;;;73.18;10.48;;;;;;;;;;5071161;28;20237;-63
2021/12/13 09:22:59;;;;;;;73.87;12.50;;;;;;;;;;5070888;28;20237;-63
2021/12/13 09:25:29;;;;;;;73.15;12.95;;;;;;;;;;5071402;28;20448;-64
2021/12/13 09:27:59;;;;;;;70.30;11.80;;;;;;;;;;5071370;28;20202;-64
2021/12/13 09:30:30;;;;;;;69.87;10.30;;;;;;;;;;5071001;28;20476;-63
2021/12/13 09:32:59;;;;;;;70.53;12.00;;;;;;;;;;5071342;28;20801;-65
2021/12/13 09:35:35;;;;;;;71.30;11.90;;;;;;;;;;5068981;28;20228;-64
2021/12/13 09:38:05;;;;;;;67.87;10.50;;;;;;;;;;5070938;28;20697;-64
2021/12/13 09:40:36;;;;;;;77.50;11.50;;;;;;;;;;5071463;28;20817;-64
2021/12/13 09:43:03;;;;;;;71.53;11.65;;;;;;;;;;5070869;28;20809;-64
2021/12/13 09:45:36;;;;;;;73.18;11.90;;;;;;;;;;5071017;28;20297;-63
2021/12/13 09:48:15;;;;;;;69.53;11.02;;;;;;;;;;5070735;28;20247;-64
2021/12/13 09:50:42;;;;;;;72.53;11.37;;;;;;;;;;5070990;28;20314;-65
2021/12/13 09:53:12;;;;;;;76.60;11.50;;;;;;;;;;5071194;28;20494;-64
2021/12/13 09:55:41;;;;;;;80.23;11.93;;;;;;;;;;5071071;28;20212;-64
2021/12/13 09:58:10;;;;;;;70.97;11.13;;;;;;;;;;5070968;28;20454;-64
2021/12/13 10:00:41;;;;;;;69.50;10.80;;;;;;;;;;5071191;28;20562;-64
2021/12/13 10:03:11;;;;;;;69.70;11.10;;;;;;;;;;5071231;28;20493;-64
2021/12/13 10:05:39;;;;;;;72.70;10.80;;;;;;;;;;5068898;28;20480;-64
2021/12/13 10:08:08;;;;;;;82.73;9.87;;;;;;;;;;5070927;28;20834;-64
2021/12/13 10:10:37;;;;;;;69.80;10.70;;;;;;;;;;5070988;28;20469;-64
2021/12/13 10:13:05;;;;;;;70.33;9.20;;;;;;;;;;5070906;28;20537;-64
2021/12/13 10:15:37;;;;;;;73.93;9.70;;;;;;;;;;5070979;28;20449;-64
2021/12/13 10:18:07;;;;;;;70.57;10.27;;;;;;;;;;5071175;28;20443;-64
2021/12/13 10:20:36;;;;;;;68.40;9.60;;;;;;;;;;5071434;28;20471;-65
2021/12/13 10:23:06;;;;;;;67.33;10.53;;;;;;;;;;5074294;28;20644;-66
2021/12/13 10:25:34;;;;;;;67.50;9.53;;;;;;;;;;5074271;28;20487;-65
2021/12/13 10:28:01;;;;;;;71.63;9.53;;;;;;;;;;5074071;28;20532;-65
2021/12/13 10:30:30;;;;;;;71.53;9.93;;;;;;;;;;5074452;28;20559;-65
2021/12/13 10:32:59;;;;;;;66.93;9.00;;;;;;;;;;5074224;28;20450;-65
2021/12/13 10:35:29;;;;;;;67.50;10.10;;;;;;;;;;5074203;28;20539;-65
2021/12/13 10:37:58;;;;;;;70.17;10.87;;;;;;;;;;5061564;28;20467;-65
2021/12/13 10:40:26;;;;;;;68.53;9.60;;;;;;;;;;5054084;28;20470;-65
2021/12/13 10:42:56;;;;;;;65.70;9.10;;;;;;;;;;5054064;28;21047;-66
2021/12/13 10:45:26;;;;;;;69.40;10.40;;;;;;;;;;5053967;28;20541;-65
2021/12/13 10:47:55;;;;;;;66.57;8.70;;;;;;;;;;5053777;28;20458;-65
2021/12/13 10:50:25;;;;;;;65.60;8.23;;;;;;;;;;5053849;28;20558;-66
2021/12/13 10:52:53;;;;;;;67.40;9.10;;;;;;;;;;5054410;28;20554;-65
2021/12/13 10:55:22;;;;;;;66.60;9.63;;;;;;;;;;5053907;28;20463;-65
2021/12/13 10:57:50;;;;;;;69.73;10.10;;;;;;;;;;5053628;28;20461;-66
2021/12/13 11:00:19;;;;;;;67.23;8.67;;;;;;;;;;5053801;28;20553;-65
2021/12/13 11:02:46;;;;;;;67.17;9.40;;;;;;;;;;5053521;28;20494;-65
2021/12/13 11:05:15;;;;;;;70.40;10.10;;;;;;;;;;5053657;28;20552;-65
2021/12/13 11:07:43;;;;;;;66.13;9.50;;;;;;;;;;5053410;28;20452;-65
2021/12/13 11:10:13;;;;;;;72.00;10.30;;;;;;;;;;5053221;28;20467;-65
2021/12/13 11:12:42;;;;;;;71.07;9.40;;;;;;;;;;5053581;28;20454;-65
2021/12/13 11:15:11;;;;;;;68.20;8.80;;;;;;;;;;5051945;28;20512;-65
2021/12/13 11:17:39;;;;;;;66.27;8.60;;;;;;;;;;5053139;28;20448;-66
2021/12/13 11:20:09;;;;;;;66.03;9.20;;;;;;;;;;5053486;28;20471;-66
2021/12/13 11:22:37;;;;;;;64.40;7.63;;;;;;;;;;5053254;28;20487;-63
2021/12/13 11:25:06;;;;;;;65.87;8.20;;;;;;;;;;5053322;28;20539;-65
2021/12/13 11:27:35;;;;;;;65.13;7.80;;;;;;;;;;5053020;28;20469;-65
2021/12/13 11:30:06;;;;;;;63.03;7.10;;;;;;;;;;5052974;28;20465;-65
2021/12/13 11:32:51;;;;;;;63.97;7.73;;;;;;;;;;5052591;28;20444;-65
2021/12/13 11:35:46;;;;;;;63.10;6.90;;;;;;;;;;5053102;28;20452;-65
2021/12/13 11:38:20;;;;;;;66.20;6.67;;;;;;;;;;5052724;28;20457;-65
2021/12/13 11:40:56;;;;;;;64.57;7.30;;;;;;;;;;5053012;28;20476;-65
2021/12/13 11:43:37;;;;;;;63.30;6.30;;;;;;;;;;5052895;28;20483;-65
2021/12/13 11:46:09;;;;;;;63.90;6.90;;;;;;;;;;5060571;28;21038;-65
2021/12/13 11:48:59;;;;;;;63.90;7.17;;;;;;;;;;5072524;28;20511;-64
2021/12/13 11:51:52;;;;;;;63.27;7.63;;;;;;;;;;5067931;28;20882;-64
2021/12/13 11:54:34;;;;;;;65.10;7.70;;;;;;;;;;5072872;28;20450;-65
2021/12/13 11:57:18;;;;;;;67.83;7.17;;;;;;;;;;5072408;28;20453;-65
2021/12/13 11:59:57;;;;;;;63.07;6.63;;;;;;;;;;5072584;28;20546;-65
2021/12/13 12:02:30;;;;;;;63.30;7.00;;;;;;;;;;5072366;28;20483;-65
2021/12/13 12:05:15;;;;;;;62.37;7.00;;;;;;;;;;5072512;28;20531;-65
2021/12/13 12:08:13;;;;;;;61.80;6.80;;;;;;;;;;5072110;28;21014;-65
2021/12/13 12:10:58;;;;;;;62.70;6.27;;;;;;;;;;5072573;28;20892;-65
2021/12/13 12:13:31;;;;;;;62.90;7.23;;;;;;;;;;5041977;28;20447;-65
2021/12/13 12:16:02;;;;;;;65.73;7.73;;;;;;;;;;5072639;28;20455;-65
2021/12/13 12:18:30;;;;;;;63.13;6.57;;;;;;;;;;5070343;28;20533;-65
2021/12/13 12:21:12;;;;;;;64.73;6.63;;;;;;;;;;5072238;28;20463;-65
2021/12/13 12:23:42;;;;;;;62.47;6.60;;;;;;;;;;5071994;28;20577;-65
2021/12/13 12:26:09;;;;;;;62.97;6.93;;;;;;;;;;5071953;28;20939;-65
2021/12/13 12:28:38;;;;;;;63.60;5.90;;;;;;;;;;5071893;28;20538;-65
2021/12/13 12:31:07;;;;;;;61.17;5.73;;;;;;;;;;5072341;28;20830;-65
2021/12/13 12:33:35;;;;;;;63.00;6.57;;;;;;;;;;5072234;28;20479;-65
2021/12/13 12:36:06;;;;;;;62.97;6.77;;;;;;;;;;5071953;28;21055;-65
2021/12/13 12:38:58;;;;;;;59.90;5.17;;;;;;;;;;5071819;28;20447;-65
2021/12/13 12:41:43;;;;;;;63.30;5.77;;;;;;;;;;5071840;28;20541;-65
2021/12/13 12:44:16;;;;;;;59.77;4.57;;;;;;;;;;5071689;28;20436;-65
2021/12/13 12:46:44;;;;;;;63.13;5.90;;;;;;;;;;5071766;28;20947;-65
2021/12/13 12:49:14;;;;;;;60.90;4.87;;;;;;;;;;5068221;28;20566;-65
2021/12/13 12:51:41;;;;;;;59.67;4.37;;;;;;;;;;5052064;28;20452;-66
2021/12/13 12:54:09;;;;;;;59.80;3.73;;;;;;;;;;5051985;28;20536;-65
2021/12/13 12:56:39;;;;;;;60.00;4.80;;;;;;;;;;5051764;28;20448;-65
2021/12/13 12:59:09;;;;;;;60.07;4.33;;;;;;;;;;5051567;28;20831;-65
2021/12/13 13:01:38;;;;;;;60.60;4.30;;;;;;;;;;5051453;28;20448;-65
2021/12/13 13:04:13;;;;;;;61.40;5.37;;;;;;;;;;5051528;28;20566;-64
2021/12/13 13:06:49;;;;;;;62.23;5.33;;;;;;;;;;5051712;28;20535;-65
2021/12/13 13:09:17;;;;;;;60.40;5.10;;;;;;;;;;5051390;28;21002;-65
2021/12/13 13:11:46;;;;;;;62.50;5.37;;;;;;;;;;5051460;28;20536;-65
2021/12/13 13:14:16;;;;;;;61.50;5.33;;;;;;;;;;5051521;28;20529;-65
2021/12/13 13:16:45;;;;;;;60.40;5.20;;;;;;;;;;5051527;28;20452;-65
2021/12/13 13:19:23;;;;;;;60.00;4.83;;;;;;;;;;5051233;28;20859;-65
2021/12/13 13:21:50;;;;;;;60.50;5.60;;;;;;;;;;5053898;28;20592;-65
2021/12/13 13:24:19;;;;;;;59.87;4.93;;;;;;;;;;5071586;28;20489;-65
2021/12/13 13:26:46;;;;;;;60.67;4.90;;;;;;;;;;5071268;28;20570;-65
2021/12/13 13:29:17;;;;;;;63.27;4.87;;;;;;;;;;5071284;28;20478;-65
2021/12/13 13:31:48;;;;;;;61.27;5.90;;;;;;;;;;5071550;28;20451;-65
2021/12/13 13:34:16;;;;;;;61.40;5.40;;;;;;;;;;5071725;28;20505;-64
2021/12/13 13:36:46;;;;;;;62.97;5.67;;;;;;;;;;5071158;28;20458;-65
2021/12/13 13:39:15;;;;;;;60.17;5.00;;;;;;;;;;5070801;28;20467;-65
2021/12/13 13:41:43;;;;;;;61.20;4.90;;;;;;;;;;5071373;28;20459;-66
2021/12/13 13:44:10;;;;;;;61.70;5.00;;;;;;;;;;5071293;28;20508;-65
2021/12/13 13:46:40;;;;;;;61.50;5.20;;;;;;;;;;5071401;28;20449;-65
2021/12/13 13:49:08;;;;;;;60.40;5.17;;;;;;;;;;5071005;28;20826;-65
2021/12/13 13:51:36;;;;;;;60.80;5.43;;;;;;;;;;5071085;28;20446;-65
2021/12/13 13:54:04;;;;;;;61.10;5.23;;;;;;;;;;5065965;28;20447;-64
2021/12/13 13:56:33;;;;;;;62.80;5.90;;;;;;;;;;5052949;28;20454;-65
2021/12/13 13:59:02;;;;;;;61.53;5.63;;;;;;;;;;5054720;28;20546;-65
2021/12/13 14:01:31;;;;;;;60.47;5.40;;;;;;;;;;5054955;28;20448;-65
2021/12/13 14:04:03;;;;;;;61.20;5.93;;;;;;;;;;5054532;28;20478;-65
2021/12/13 14:06:33;;;;;;;60.67;4.67;;;;;;;;;;5055042;28;20550;-65
2021/12/13 14:09:01;;;;;;;59.80;5.27;;;;;;;;;;5054900;28;20454;-64
2021/12/13 14:11:29;;;;;;;60.70;5.20;;;;;;;;;;5054651;28;20952;-65
2021/12/13 14:13:59;;;;;;;62.33;4.97;;;;;;;;;;5054825;28;20447;-65
2021/12/13 14:16:28;;;;;;;60.60;4.70;;;;;;;;;;5054899;28;20458;-65
2021/12/13 14:18:55;;;;;;;60.77;5.57;;;;;;;;;;5054280;28;20446;-65
2021/12/13 14:21:27;;;;;;;59.70;4.63;;;;;;;;;;5054623;28;20964;-66
2021/12/13 14:23:55;;;;;;;64.60;6.50;;;;;;;;;;5054359;28;20994;-64
2021/12/13 14:26:23;;;;;;;64.80;6.97;;;;;;;;;;5060890;28;20465;-64
2021/12/13 14:28:52;;;;;;;64.00;6.40;;;;;;;;;;5074066;28;20977;-65
2021/12/13 14:31:24;;;;;;;60.47;5.30;;;;;;;;;;5074252;28;20454;-66
2021/12/13 14:33:52;;;;;;;60.90;5.53;;;;;;;;;;5074382;28;20454;-65
2021/12/13 14:36:20;;;;;;;60.70;4.90;;;;;;;;;;5074279;28;20467;-65
2021/12/13 14:38:51;;;;;;;61.10;5.20;;;;;;;;;;5074023;28;20450;-66
2021/12/13 14:41:19;;;;;;;64.50;5.60;;;;;;;;;;5074252;28;20833;-66
2021/12/13 14:43:49;;;;;;;63.10;6.43;;;;;;;;;;5073716;28;20661;-64
2021/12/13 14:46:18;;;;;;;61.50;5.53;;;;;;;;;;5074217;28;20528;-65